Time,TemperatureF,DewpointF,PressureIn,WindDirection,WindDirectionDegrees,WindSpeedMPH,WindSpeedGustMPH,Humidity,HourlyPrecipIn,Conditions,Clouds,dailyrainin,SoftwareType,DateUTC
2013-01-23 00:00:00,8.2,1.0,30.22,West,259,4.0,6.0,72,0.00,,OVC037,0.00,VWS V14.01,2013-01-23 05:00:00,
2013-01-23 00:03:00,8.3,1.1,30.22,WNW,301,5.0,7.0,72,0.00,,OVC039,0.00,VWS V14.01,2013-01-23 05:03:00,
2013-01-23 00:08:00,8.3,1.1,30.22,NW,326,9.0,10.0,72,0.00,,OVC039,0.00,VWS V14.01,2013-01-23 05:08:00,
2013-01-23 00:13:00,8.4,1.5,30.22,NW,319,7.0,7.0,73,0.00,,OVC039,0.00,VWS V14.01,2013-01-23 05:13:00,
2013-01-23 00:19:00,8.4,1.8,30.22,NW,317,3.0,4.0,74,0.00,,OVC039,0.00,VWS V14.01,2013-01-23 05:19:00,
2013-01-23 00:23:00,8.5,1.6,30.21,NW,311,4.0,4.0,73,0.00,,OVC039,0.00,VWS V14.01,2013-01-23 05:23:00,
2013-01-23 00:29:00,8.5,1.0,30.21,West,280,5.0,9.0,71,0.00,,OVC039,0.00,VWS V14.01,2013-01-23 05:29:00,
2013-01-23 00:34:00,8.5,1.0,30.21,NW,319,3.0,7.0,71,0.00,,OVC039,0.00,VWS V14.01,2013-01-23 05:34:00,
2013-01-23 00:39:00,8.6,1.4,30.21,West,271,5.0,5.0,72,0.00,,OVC039,0.00,VWS V14.01,2013-01-23 05:39:00,
2013-01-23 00:44:00,8.5,1.6,30.21,NW,304,4.0,7.0,73,0.00,,OVC039,0.00,VWS V14.01,2013-01-23 05:44:00,
2013-01-23 00:49:00,8.6,1.7,30.21,NNW,331,5.0,7.0,73,0.00,,OVC039,0.00,VWS V14.01,2013-01-23 05:49:00,
2013-01-23 00:54:00,8.5,1.6,30.21,WSW,246,6.0,6.0,73,0.00,,OVC039,0.00,VWS V14.01,2013-01-23 05:54:00,
2013-01-23 00:59:00,8.5,1.6,30.21,WNW,287,5.0,6.0,73,0.00,,OVC039,0.00,VWS V14.01,2013-01-23 05:59:00,
2013-01-23 01:04:00,8.6,1.7,30.21,NW,322,2.0,7.0,73,0.00,,OVC035,0.00,VWS V14.01,2013-01-23 06:04:00,
2013-01-23 01:09:00,8.6,1.7,30.21,West,269,6.0,9.0,73,0.00,,OVC035,0.00,VWS V14.01,2013-01-23 06:09:00,
2013-01-23 01:14:00,8.6,1.7,30.21,WSW,254,5.0,5.0,73,0.00,,OVC035,0.00,VWS V14.01,2013-01-23 06:14:00,
2013-01-23 01:19:00,8.5,1.6,30.21,WNW,298,5.0,6.0,73,0.00,,OVC035,0.00,VWS V14.01,2013-01-23 06:19:00,
2013-01-23 01:24:00,8.6,1.7,30.21,WNW,297,1.0,4.0,73,0.00,,OVC035,0.00,VWS V14.01,2013-01-23 06:24:00,
2013-01-23 01:29:00,8.6,1.7,30.21,NW,323,6.0,6.0,73,0.00,,OVC035,0.00,VWS V14.01,2013-01-23 06:29:00,
2013-01-23 01:34:00,8.6,1.7,30.21,WNW,291,4.0,6.0,73,0.00,,OVC035,0.00,VWS V14.01,2013-01-23 06:34:00,
2013-01-23 01:39:00,8.6,1.7,30.21,NW,319,6.0,8.0,73,0.00,,OVC035,0.00,VWS V14.01,2013-01-23 06:39:00,
2013-01-23 01:44:00,8.6,1.7,30.21,WSW,244,8.0,8.0,73,0.00,,OVC035,0.00,VWS V14.01,2013-01-23 06:44:00,
2013-01-23 01:49:00,8.6,1.7,30.21,NW,313,3.0,4.0,73,0.00,,OVC035,0.00,VWS V14.01,2013-01-23 06:49:00,
2013-01-23 01:54:00,8.6,1.4,30.21,West,281,3.0,7.0,72,0.00,,OVC035,0.00,VWS V14.01,2013-01-23 06:54:00,
2013-01-23 01:59:00,8.7,1.2,30.21,West,266,3.0,6.0,71,0.00,,OVC035,0.00,VWS V14.01,2013-01-23 06:59:00,
2013-01-23 02:04:00,8.7,1.2,30.21,NNW,343,8.0,8.0,71,0.00,,OVC036,0.00,VWS V14.01,2013-01-23 07:04:00,
2013-01-23 02:09:00,8.8,1.3,30.20,WNW,302,6.0,8.0,71,0.00,,OVC036,0.00,VWS V14.01,2013-01-23 07:09:00,
2013-01-23 02:14:00,8.9,1.4,30.20,West,277,5.0,6.0,71,0.00,,OVC036,0.00,VWS V14.01,2013-01-23 07:14:00,
2013-01-23 02:19:00,8.9,1.4,30.20,NW,310,2.0,4.0,71,0.00,,OVC036,0.00,VWS V14.01,2013-01-23 07:19:00,
2013-01-23 02:24:00,8.9,1.7,30.20,NW,313,8.0,8.0,72,0.00,,OVC036,0.00,VWS V14.01,2013-01-23 07:24:00,
2013-01-23 02:29:00,8.9,1.7,30.20,WNW,290,5.0,10.0,72,0.00,,OVC036,0.00,VWS V14.01,2013-01-23 07:29:00,
2013-01-23 02:34:00,9.0,1.5,30.20,NW,321,6.0,6.0,71,0.00,,OVC036,0.00,VWS V14.01,2013-01-23 07:34:00,
2013-01-23 02:39:00,8.9,1.4,30.20,West,271,5.0,7.0,71,0.00,,OVC036,0.00,VWS V14.01,2013-01-23 07:39:00,
2013-01-23 02:44:00,8.8,1.3,30.20,North,351,4.0,5.0,71,0.00,,OVC036,0.00,VWS V14.01,2013-01-23 07:44:00,
2013-01-23 02:49:00,8.7,1.2,30.20,WSW,252,5.0,6.0,71,0.00,,OVC036,0.00,VWS V14.01,2013-01-23 07:49:00,
2013-01-23 02:54:00,8.6,1.4,30.20,NW,314,4.0,6.0,72,0.00,,OVC036,0.00,VWS V14.01,2013-01-23 07:54:00,
2013-01-23 02:59:00,8.6,1.4,30.20,WNW,289,2.0,4.0,72,0.00,,OVC036,0.00,VWS V14.01,2013-01-23 07:59:00,
2013-01-23 03:04:00,8.6,1.7,30.20,WNW,297,1.0,5.0,73,0.00,,OVC065,0.00,VWS V14.01,2013-01-23 08:04:00,
2013-01-23 03:09:00,8.6,1.7,30.20,West,277,4.0,5.0,73,0.00,,OVC065,0.00,VWS V14.01,2013-01-23 08:09:00,
2013-01-23 03:14:00,8.6,1.7,30.20,WNW,288,2.0,3.0,73,0.00,,OVC065,0.00,VWS V14.01,2013-01-23 08:14:00,
2013-01-23 03:19:00,8.6,1.7,30.19,WNW,290,5.0,5.0,73,0.00,,OVC065,0.00,VWS V14.01,2013-01-23 08:19:00,
2013-01-23 03:24:00,8.8,1.6,30.19,West,265,3.0,3.0,72,0.00,,OVC065,0.00,VWS V14.01,2013-01-23 08:24:00,
2013-01-23 03:30:00,8.9,1.7,30.19,West,276,7.0,7.0,72,0.00,,OVC065,0.00,VWS V14.01,2013-01-23 08:30:00,
2013-01-23 03:35:00,9.0,1.8,30.19,WSW,252,5.0,8.0,72,0.00,,OVC065,0.00,VWS V14.01,2013-01-23 08:35:00,
2013-01-23 03:40:00,9.0,1.8,30.19,WNW,290,3.0,5.0,72,0.00,,OVC065,0.00,VWS V14.01,2013-01-23 08:40:00,
2013-01-23 03:45:00,9.0,1.8,30.19,West,281,3.0,7.0,72,0.00,,OVC065,0.00,VWS V14.01,2013-01-23 08:45:00,
2013-01-23 03:50:00,8.9,1.7,30.19,West,271,4.0,5.0,72,0.00,,OVC065,0.00,VWS V14.01,2013-01-23 08:50:00,
2013-01-23 03:55:00,8.9,1.7,30.19,WSW,248,3.0,4.0,72,0.00,,OVC065,0.00,VWS V14.01,2013-01-23 08:55:00,
2013-01-23 04:00:00,8.8,1.6,30.18,WSW,258,5.0,6.0,72,0.00,,OVC065,0.00,VWS V14.01,2013-01-23 09:00:00,
2013-01-23 04:05:00,8.9,1.7,30.18,WNW,294,0.0,2.0,72,0.00,,SCT065,0.00,VWS V14.01,2013-01-23 09:05:00,
2013-01-23 04:10:00,8.8,1.6,30.18,WNW,288,3.0,5.0,72,0.00,,SCT065,0.00,VWS V14.01,2013-01-23 09:10:00,
2013-01-23 04:15:00,8.7,1.8,30.18,West,271,5.0,5.0,73,0.00,,SCT065,0.00,VWS V14.01,2013-01-23 09:15:00,
2013-01-23 04:20:00,8.6,1.7,30.18,WSW,258,4.0,8.0,73,0.00,,SCT065,0.00,VWS V14.01,2013-01-23 09:20:00,
2013-01-23 04:25:00,8.4,1.2,30.18,WNW,286,5.0,8.0,72,0.00,,SCT065,0.00,VWS V14.01,2013-01-23 09:25:00,
2013-01-23 04:30:00,8.3,1.1,30.17,WNW,301,3.0,5.0,72,0.00,,SCT065,0.00,VWS V14.01,2013-01-23 09:30:00,
2013-01-23 04:35:00,8.3,1.1,30.17,NW,304,4.0,5.0,72,0.00,,SCT065,0.00,VWS V14.01,2013-01-23 09:35:00,
2013-01-23 04:40:00,8.3,1.1,30.17,WSW,254,9.0,9.0,72,0.00,,SCT065,0.00,VWS V14.01,2013-01-23 09:40:00,
2013-01-23 04:45:00,8.3,1.1,30.17,WNW,299,2.0,3.0,72,0.00,,SCT065,0.00,VWS V14.01,2013-01-23 09:45:00,
2013-01-23 04:50:00,8.3,1.1,30.17,WNW,286,2.0,4.0,72,0.00,,SCT065,0.00,VWS V14.01,2013-01-23 09:50:00,
2013-01-23 04:55:00,8.4,1.2,30.17,West,263,6.0,6.0,72,0.00,,SCT065,0.00,VWS V14.01,2013-01-23 09:55:00,
2013-01-23 05:00:00,8.6,1.4,30.16,West,268,4.0,4.0,72,0.00,,SCT065,0.00,VWS V14.01,2013-01-23 10:00:00,
2013-01-23 05:05:00,8.9,1.4,30.16,WNW,300,2.0,7.0,71,0.00,,OVC044,0.00,VWS V14.01,2013-01-23 10:05:00,
2013-01-23 05:10:00,9.2,1.7,30.16,WSW,247,5.0,6.0,71,0.00,,OVC044,0.00,VWS V14.01,2013-01-23 10:10:00,
2013-01-23 05:15:00,9.4,1.9,30.16,WNW,282,2.0,6.0,71,0.00,,,0.00,VWS V14.01,2013-01-23 10:15:00,
2013-01-23 05:20:00,9.6,2.4,30.15,NW,311,5.0,6.0,72,0.00,,,0.00,VWS V14.01,2013-01-23 10:20:00,
2013-01-23 05:25:00,9.7,2.5,30.15,West,259,5.0,6.0,72,0.00,,,0.00,VWS V14.01,2013-01-23 10:25:00,
2013-01-23 05:30:00,9.8,2.9,30.15,NW,326,3.0,5.0,73,0.00,,,0.00,VWS V14.01,2013-01-23 10:30:00,
2013-01-23 05:35:00,9.9,3.0,30.15,NW,322,6.0,7.0,73,0.00,,,0.00,VWS V14.01,2013-01-23 10:35:00,
2013-01-23 05:40:00,9.9,3.0,30.15,WNW,295,2.0,8.0,73,0.00,,,0.00,VWS V14.01,2013-01-23 10:40:00,
2013-01-23 05:45:00,9.9,3.3,30.15,NW,314,4.0,4.0,74,0.00,,,0.00,VWS V14.01,2013-01-23 10:45:00,
2013-01-23 05:50:00,9.9,3.0,30.15,West,281,4.0,9.0,73,0.00,,,0.00,VWS V14.01,2013-01-23 10:50:00,
2013-01-23 05:55:00,9.9,3.3,30.15,WNW,283,9.0,9.0,74,0.00,,,0.00,VWS V14.01,2013-01-23 10:55:00,
2013-01-23 06:00:00,9.9,3.3,30.15,WNW,300,4.0,5.0,74,0.00,,,0.00,VWS V14.01,2013-01-23 11:00:00,
2013-01-23 06:05:00,9.9,3.9,30.15,NW,321,4.0,10.0,76,0.00,,,0.00,VWS V14.01,2013-01-23 11:05:00,
2013-01-23 06:10:00,9.8,4.1,30.15,WNW,289,6.0,7.0,77,0.00,,,0.00,VWS V14.01,2013-01-23 11:10:00,
2013-01-23 06:16:00,9.8,4.3,30.15,WNW,293,9.0,13.0,78,0.00,,,0.00,VWS V14.01,2013-01-23 11:16:00,
2013-01-23 06:20:00,9.8,4.1,30.14,WNW,282,5.0,11.0,77,0.00,,,0.00,VWS V14.01,2013-01-23 11:20:00,
2013-01-23 06:26:00,9.8,4.1,30.15,WNW,299,5.0,11.0,77,0.00,,,0.00,VWS V14.01,2013-01-23 11:26:00,
2013-01-23 06:31:00,9.8,4.3,30.15,NW,304,9.0,9.0,78,0.00,,,0.00,VWS V14.01,2013-01-23 11:31:00,
2013-01-23 06:36:00,9.8,4.3,30.15,NW,304,5.0,9.0,78,0.00,,,0.00,VWS V14.01,2013-01-23 11:36:00,
2013-01-23 06:41:00,9.6,4.4,30.15,WNW,295,2.0,7.0,79,0.00,,,0.00,VWS V14.01,2013-01-23 11:41:00,
2013-01-23 06:46:00,9.6,4.4,30.15,WNW,299,3.0,6.0,79,0.00,,,0.00,VWS V14.01,2013-01-23 11:46:00,
2013-01-23 06:51:00,9.6,3.8,30.14,NW,323,6.0,11.0,77,0.00,,,0.00,VWS V14.01,2013-01-23 11:51:00,
2013-01-23 06:56:00,9.7,4.0,30.15,West,265,9.0,10.0,77,0.00,,,0.00,VWS V14.01,2013-01-23 11:56:00,
2013-01-23 07:01:00,9.8,3.5,30.15,West,279,6.0,7.0,75,0.00,,,0.00,VWS V14.01,2013-01-23 12:01:00,
2013-01-23 07:06:00,9.8,3.2,30.15,WNW,289,9.0,11.0,74,0.00,,,0.00,VWS V14.01,2013-01-23 12:06:00,
2013-01-23 07:11:00,9.8,3.2,30.15,WSW,252,4.0,9.0,74,0.00,,,0.00,VWS V14.01,2013-01-23 12:11:00,
2013-01-23 07:16:00,9.8,3.2,30.14,WNW,294,9.0,9.0,74,0.00,,,0.00,VWS V14.01,2013-01-23 12:16:00,
2013-01-23 07:21:00,9.7,3.1,30.14,WNW,296,5.0,10.0,74,0.00,,,0.00,VWS V14.01,2013-01-23 12:21:00,
2013-01-23 07:26:00,9.8,3.5,30.14,WNW,288,9.0,11.0,75,0.00,,,0.00,VWS V14.01,2013-01-23 12:26:00,
2013-01-23 07:31:00,9.7,3.4,30.14,WNW,292,7.0,12.0,75,0.00,,,0.00,VWS V14.01,2013-01-23 12:31:00,
2013-01-23 07:36:00,9.6,3.3,30.14,WNW,290,5.0,8.0,75,0.00,,,0.00,VWS V14.01,2013-01-23 12:36:00,
2013-01-23 07:41:00,9.6,3.3,30.14,NW,315,6.0,8.0,75,0.00,,,0.00,VWS V14.01,2013-01-23 12:41:00,
2013-01-23 07:46:00,9.5,2.9,30.13,West,271,2.0,3.0,74,0.00,,,0.00,VWS V14.01,2013-01-23 12:46:00,
2013-01-23 07:51:00,9.5,2.9,30.13,WSW,255,8.0,8.0,74,0.00,,,0.00,VWS V14.01,2013-01-23 12:51:00,
2013-01-23 07:56:00,9.4,2.8,30.13,SW,220,7.0,8.0,74,0.00,,,0.00,VWS V14.01,2013-01-23 12:56:00,
2013-01-23 08:01:00,9.4,2.8,30.13,WSW,244,7.0,7.0,74,0.00,,,0.00,VWS V14.01,2013-01-23 13:01:00,
2013-01-23 08:06:00,9.4,3.1,30.13,West,273,5.0,9.0,75,0.00,,,0.00,VWS V14.01,2013-01-23 13:06:00,
2013-01-23 08:11:00,9.5,3.2,30.13,West,259,3.0,6.0,75,0.00,,,0.00,VWS V14.01,2013-01-23 13:11:00,
2013-01-23 08:16:00,9.5,3.2,30.12,WNW,284,3.0,6.0,75,0.00,,,0.00,VWS V14.01,2013-01-23 13:16:00,
2013-01-23 08:21:00,9.5,3.5,30.13,West,275,2.0,2.0,76,0.00,,,0.00,VWS V14.01,2013-01-23 13:21:00,
2013-01-23 08:26:00,9.5,3.5,30.13,West,270,2.0,4.0,76,0.00,,,0.00,VWS V14.01,2013-01-23 13:26:00,
2013-01-23 08:31:00,9.6,3.6,30.12,WNW,283,6.0,10.0,76,0.00,,,0.00,VWS V14.01,2013-01-23 13:31:00,
2013-01-23 08:36:00,9.6,3.6,30.12,WNW,299,3.0,7.0,76,0.00,,,0.00,VWS V14.01,2013-01-23 13:36:00,
2013-01-23 08:41:00,9.7,3.7,30.13,WNW,288,2.0,5.0,76,0.00,,,0.00,VWS V14.01,2013-01-23 13:41:00,
2013-01-23 08:46:00,9.7,3.7,30.12,WNW,290,4.0,7.0,76,0.00,,,0.00,VWS V14.01,2013-01-23 13:46:00,
2013-01-23 08:51:00,9.9,3.9,30.13,West,275,4.0,5.0,76,0.00,,,0.00,VWS V14.01,2013-01-23 13:51:00,
2013-01-23 08:56:00,9.9,3.9,30.12,WNW,287,3.0,3.0,76,0.00,,,0.00,VWS V14.01,2013-01-23 13:56:00,
2013-01-23 09:01:00,10.0,3.7,30.12,West,270,4.0,8.0,75,0.00,,OVC080,0.00,VWS V14.01,2013-01-23 14:01:00,
2013-01-23 09:06:00,10.1,3.5,30.12,WNW,296,3.0,5.0,74,0.00,,OVC080,0.00,VWS V14.01,2013-01-23 14:06:00,
2013-01-23 09:11:00,10.1,3.5,30.12,West,271,3.0,4.0,74,0.00,,OVC080,0.00,VWS V14.01,2013-01-23 14:11:00,
2013-01-23 09:16:00,10.2,3.6,30.12,West,259,7.0,10.0,74,0.00,,OVC080,0.00,VWS V14.01,2013-01-23 14:16:00,
2013-01-23 09:21:00,10.3,3.4,30.13,WSW,248,8.0,11.0,73,0.00,,OVC080,0.00,VWS V14.01,2013-01-23 14:21:00,
2013-01-23 09:26:00,10.4,3.5,30.13,WNW,288,6.0,7.0,73,0.00,,OVC080,0.00,VWS V14.01,2013-01-23 14:26:00,
2013-01-23 09:31:00,10.5,3.3,30.13,WSW,251,10.0,10.0,72,0.00,,OVC080,0.00,VWS V14.01,2013-01-23 14:31:00,
2013-01-23 09:36:00,10.6,3.1,30.13,West,281,7.0,10.0,71,0.00,,OVC080,0.00,VWS V14.01,2013-01-23 14:36:00,
2013-01-23 09:41:00,10.7,3.2,30.13,WNW,285,7.0,12.0,71,0.00,,OVC080,0.00,VWS V14.01,2013-01-23 14:41:00,
2013-01-23 09:46:00,10.8,3.0,30.13,WNW,288,6.0,7.0,70,0.00,,OVC080,0.00,VWS V14.01,2013-01-23 14:46:00,
2013-01-23 09:51:00,10.9,3.0,30.13,West,264,6.0,6.0,70,0.00,,OVC080,0.00,VWS V14.01,2013-01-23 14:51:00,
2013-01-23 09:56:00,11.0,3.2,30.13,WNW,290,3.0,4.0,70,0.00,,OVC080,0.00,VWS V14.01,2013-01-23 14:56:00,
2013-01-23 10:01:00,11.2,3.3,30.13,NNW,332,6.0,9.0,70,0.00,,OVC080,0.00,VWS V14.01,2013-01-23 15:01:00,
2013-01-23 10:06:00,11.3,3.4,30.13,West,275,5.0,11.0,70,0.00,,OVC075,0.00,VWS V14.01,2013-01-23 15:06:00,
2013-01-23 10:11:00,11.5,3.3,30.12,West,268,2.0,5.0,69,0.00,,OVC075,0.00,VWS V14.01,2013-01-23 15:11:00,
2013-01-23 10:16:00,11.6,3.7,30.12,North,357,3.0,4.0,70,0.00,,OVC075,0.00,VWS V14.01,2013-01-23 15:16:00,
2013-01-23 10:21:00,11.7,4.1,30.12,NW,308,4.0,5.0,71,0.00,,OVC075,0.00,VWS V14.01,2013-01-23 15:21:00,
2013-01-23 10:26:00,11.7,4.1,30.12,WNW,288,7.0,12.0,71,0.00,,OVC075,0.00,VWS V14.01,2013-01-23 15:26:00,
2013-01-23 10:31:00,11.8,4.8,30.12,NNW,340,6.0,7.0,73,0.00,,OVC075,0.00,VWS V14.01,2013-01-23 15:31:00,
2013-01-23 10:36:00,11.6,5.5,30.13,WNW,300,9.0,12.0,76,0.00,,,0.00,VWS V14.01,2013-01-23 15:36:00,
2013-01-23 10:41:00,11.4,5.6,30.13,WNW,295,4.0,9.0,77,0.00,,,0.00,VWS V14.01,2013-01-23 15:41:00,
2013-01-23 10:46:00,11.5,6.3,30.12,WNW,288,6.0,12.0,79,0.00,,,0.00,VWS V14.01,2013-01-23 15:46:00,
2013-01-23 10:51:00,11.4,6.2,30.12,NW,320,3.0,9.0,79,0.00,,,0.00,VWS V14.01,2013-01-23 15:51:00,
2013-01-23 10:57:00,11.8,6.0,30.12,NW,318,6.0,11.0,77,0.00,,,0.00,VWS V14.01,2013-01-23 15:57:00,
2013-01-23 11:02:00,12.0,5.9,30.13,WNW,298,4.0,13.0,76,0.00,,,0.00,VWS V14.01,2013-01-23 16:02:00,
2013-01-23 11:07:00,12.1,6.0,30.12,NW,309,12.0,13.0,76,0.00,,,0.00,VWS V14.01,2013-01-23 16:07:00,
2013-01-23 11:12:00,12.1,6.3,30.12,WSW,249,7.0,11.0,77,0.00,,,0.00,VWS V14.01,2013-01-23 16:12:00,
2013-01-23 11:16:00,12.3,6.2,30.12,NW,310,6.0,7.0,76,0.00,,,0.00,VWS V14.01,2013-01-23 16:16:00,
2013-01-23 11:22:00,12.3,6.2,30.12,NW,307,5.0,8.0,76,0.00,,,0.00,VWS V14.01,2013-01-23 16:22:00,
2013-01-23 11:27:00,12.5,7.2,30.12,NW,322,5.0,6.0,79,0.00,,,0.00,VWS V14.01,2013-01-23 16:27:00,
2013-01-23 11:32:00,12.3,7.9,30.12,WNW,302,8.0,10.0,82,0.00,,,0.00,VWS V14.01,2013-01-23 16:32:00,
2013-01-23 11:37:00,12.3,7.9,30.12,NW,304,3.0,5.0,82,0.00,,,0.00,VWS V14.01,2013-01-23 16:37:00,
2013-01-23 11:42:00,12.3,7.6,30.11,WNW,287,7.0,7.0,81,0.00,,,0.00,VWS V14.01,2013-01-23 16:42:00,
2013-01-23 11:47:00,12.6,7.1,30.11,NNW,340,6.0,13.0,78,0.00,,,0.00,VWS V14.01,2013-01-23 16:47:00,
2013-01-23 11:52:00,12.5,7.0,30.11,NW,306,5.0,9.0,78,0.00,,,0.00,VWS V14.01,2013-01-23 16:52:00,
2013-01-23 11:57:00,12.5,7.5,30.11,NW,316,8.0,11.0,80,0.00,,,0.00,VWS V14.01,2013-01-23 16:57:00,
2013-01-23 12:02:00,12.2,8.0,30.11,WNW,292,3.0,5.0,83,0.00,,,0.00,VWS V14.01,2013-01-23 17:02:00,
2013-01-23 12:07:00,11.9,7.7,30.11,NW,321,9.0,10.0,83,0.00,,,0.00,VWS V14.01,2013-01-23 17:07:00,
2013-01-23 12:12:00,11.9,7.2,30.11,NW,321,7.0,10.0,81,0.00,,,0.00,VWS V14.01,2013-01-23 17:12:00,
2013-01-23 12:17:00,12.2,7.5,30.11,WNW,289,4.0,11.0,81,0.00,,,0.00,VWS V14.01,2013-01-23 17:17:00,
2013-01-23 12:22:00,12.3,7.6,30.10,NW,319,9.0,11.0,81,0.00,,,0.00,VWS V14.01,2013-01-23 17:22:00,
2013-01-23 12:27:00,12.2,6.9,30.10,WNW,296,2.0,8.0,79,0.00,,,0.00,VWS V14.01,2013-01-23 17:27:00,
2013-01-23 12:32:00,12.5,6.4,30.10,West,277,8.0,11.0,76,0.00,,,0.00,VWS V14.01,2013-01-23 17:32:00,
2013-01-23 12:37:00,12.7,5.1,30.10,WNW,300,6.0,7.0,71,0.00,,,0.00,VWS V14.01,2013-01-23 17:37:00,
2013-01-23 12:42:00,13.1,6.4,30.09,NNW,338,7.0,10.0,74,0.00,,,0.00,VWS V14.01,2013-01-23 17:42:00,
2013-01-23 12:47:00,13.1,5.2,30.09,NNW,333,7.0,7.0,70,0.00,,,0.00,VWS V14.01,2013-01-23 17:47:00,
2013-01-23 12:52:00,13.1,5.2,30.09,NW,323,5.0,8.0,70,0.00,,,0.00,VWS V14.01,2013-01-23 17:52:00,
2013-01-23 12:57:00,13.0,5.7,30.09,WNW,292,10.0,10.0,72,0.00,,,0.00,VWS V14.01,2013-01-23 17:57:00,
2013-01-23 13:02:00,12.5,6.1,30.09,West,281,7.0,7.0,75,0.00,,,0.00,VWS V14.01,2013-01-23 18:02:00,
2013-01-23 13:07:00,12.1,7.1,30.08,West,272,7.0,8.0,80,0.00,,,0.00,VWS V14.01,2013-01-23 18:07:00,
2013-01-23 13:12:00,12.1,7.7,30.08,North,352,5.0,5.0,82,0.00,,,0.00,VWS V14.01,2013-01-23 18:12:00,
2013-01-23 13:17:00,12.4,7.7,30.08,NW,318,6.0,7.0,81,0.00,,,0.00,VWS V14.01,2013-01-23 18:17:00,
2013-01-23 13:22:00,12.6,7.6,30.08,NNW,333,6.0,7.0,80,0.00,,,0.00,VWS V14.01,2013-01-23 18:22:00,
2013-01-23 13:27:00,12.8,7.0,30.08,NNW,345,8.0,8.0,77,0.00,,,0.00,VWS V14.01,2013-01-23 18:27:00,
2013-01-23 13:32:00,12.9,6.2,30.07,North,357,3.0,7.0,74,0.00,,,0.00,VWS V14.01,2013-01-23 18:32:00,
2013-01-23 13:37:00,13.4,5.8,30.07,WNW,294,5.0,8.0,71,0.00,,,0.00,VWS V14.01,2013-01-23 18:37:00,
2013-01-23 13:42:00,13.3,4.7,30.07,NW,308,9.0,9.0,68,0.00,,,0.00,VWS V14.01,2013-01-23 18:42:00,
2013-01-23 13:47:00,13.3,5.4,30.06,WNW,283,6.0,6.0,70,0.00,,,0.00,VWS V14.01,2013-01-23 18:47:00,
2013-01-23 13:52:00,13.3,6.0,30.06,WNW,294,6.0,8.0,72,0.00,,,0.00,VWS V14.01,2013-01-23 18:52:00,
2013-01-23 13:57:00,12.8,6.4,30.06,NW,321,6.0,7.0,75,0.00,,,0.00,VWS V14.01,2013-01-23 18:57:00,
2013-01-23 14:02:00,12.6,6.8,30.06,WNW,284,1.0,5.0,77,0.00,,,0.00,VWS V14.01,2013-01-23 19:02:00,
2013-01-23 14:07:00,12.3,6.8,30.06,WNW,291,2.0,5.0,78,0.00,,,0.00,VWS V14.01,2013-01-23 19:07:00,
2013-01-23 14:12:00,12.4,6.3,30.05,NW,306,4.0,6.0,76,0.00,,,0.00,VWS V14.01,2013-01-23 19:12:00,
2013-01-23 14:17:00,12.5,6.1,30.05,West,275,1.0,2.0,75,0.00,,,0.00,VWS V14.01,2013-01-23 19:17:00,
2013-01-23 14:22:00,12.9,6.5,30.05,West,265,7.0,9.0,75,0.00,,,0.00,VWS V14.01,2013-01-23 19:22:00,
2013-01-23 14:27:00,12.8,6.7,30.05,WNW,300,9.0,9.0,76,0.00,,,0.00,VWS V14.01,2013-01-23 19:27:00,
2013-01-23 14:32:00,12.4,6.6,30.05,NW,311,6.0,7.0,77,0.00,,,0.00,VWS V14.01,2013-01-23 19:32:00,
2013-01-23 14:37:00,12.5,6.4,30.05,WNW,296,6.0,8.0,76,0.00,,,0.00,VWS V14.01,2013-01-23 19:37:00,
2013-01-23 14:42:00,12.7,6.3,30.05,NNW,338,4.0,7.0,75,0.00,,,0.00,VWS V14.01,2013-01-23 19:42:00,
2013-01-23 14:47:00,12.6,6.8,30.05,NNW,348,7.0,7.0,77,0.00,,,0.00,VWS V14.01,2013-01-23 19:47:00,
2013-01-23 14:52:00,12.4,7.1,30.05,WNW,296,4.0,7.0,79,0.00,,,0.00,VWS V14.01,2013-01-23 19:52:00,
2013-01-23 14:57:00,12.4,6.9,30.05,NNW,328,4.0,6.0,78,0.00,,,0.00,VWS V14.01,2013-01-23 19:57:00,
2013-01-23 15:02:00,12.4,6.9,30.05,WNW,298,4.0,5.0,78,0.00,,,0.00,VWS V14.01,2013-01-23 20:02:00,
2013-01-23 15:07:00,12.4,7.4,30.05,WNW,302,3.0,4.0,80,0.00,,,0.00,VWS V14.01,2013-01-23 20:07:00,
2013-01-23 15:12:00,12.1,7.7,30.05,NNW,340,6.0,6.0,82,0.00,,,0.00,VWS V14.01,2013-01-23 20:12:00,
2013-01-23 15:17:00,12.1,8.2,30.05,NW,323,4.0,5.0,84,0.00,,,0.00,VWS V14.01,2013-01-23 20:17:00,
2013-01-23 15:22:00,12.2,8.3,30.05,WSW,241,4.0,5.0,84,0.00,,,0.00,VWS V14.01,2013-01-23 20:22:00,
2013-01-23 15:27:00,12.5,8.1,30.05,WSW,255,11.0,11.0,82,0.00,,,0.00,VWS V14.01,2013-01-23 20:27:00,
2013-01-23 15:32:00,12.5,7.8,30.05,NNW,333,7.0,7.0,81,0.00,,,0.00,VWS V14.01,2013-01-23 20:32:00,
2013-01-23 15:37:00,12.2,7.5,30.05,NNW,331,4.0,6.0,81,0.00,,,0.00,VWS V14.01,2013-01-23 20:37:00,
2013-01-23 15:42:00,12.1,7.4,30.06,NW,308,4.0,5.0,81,0.00,,,0.00,VWS V14.01,2013-01-23 20:42:00,
2013-01-23 15:47:00,12.1,7.7,30.06,NW,325,6.0,6.0,82,0.00,,,0.00,VWS V14.01,2013-01-23 20:47:00,
2013-01-23 15:52:00,12.2,7.8,30.06,NW,323,7.0,7.0,82,0.00,,,0.00,VWS V14.01,2013-01-23 20:52:00,
2013-01-23 15:57:00,12.2,7.2,30.06,WNW,302,5.0,6.0,80,0.00,,,0.00,VWS V14.01,2013-01-23 20:57:00,
2013-01-23 16:02:00,12.2,6.9,30.06,WNW,284,0.0,2.0,79,0.00,,,0.00,VWS V14.01,2013-01-23 21:02:00,
2013-01-23 16:07:00,12.2,6.4,30.06,WSW,254,4.0,6.0,77,0.00,,,0.00,VWS V14.01,2013-01-23 21:07:00,
2013-01-23 16:12:00,12.3,6.2,30.06,WSW,255,6.0,8.0,76,0.00,,,0.00,VWS V14.01,2013-01-23 21:12:00,
2013-01-23 16:17:00,12.3,6.8,30.06,NNW,339,4.0,4.0,78,0.00,,,0.00,VWS V14.01,2013-01-23 21:17:00,
2013-01-23 16:22:00,12.1,6.6,30.06,NW,320,2.0,5.0,78,0.00,,,0.00,VWS V14.01,2013-01-23 21:22:00,
2013-01-23 16:28:00,12.0,6.8,30.06,WNW,302,2.0,2.0,79,0.00,,,0.00,VWS V14.01,2013-01-23 21:28:00,
2013-01-23 16:33:00,12.1,6.8,30.06,NNW,340,2.0,3.0,79,0.00,,,0.00,VWS V14.01,2013-01-23 21:33:00,
2013-01-23 16:38:00,12.1,6.6,30.06,NW,315,2.0,4.0,78,0.00,,,0.00,VWS V14.01,2013-01-23 21:38:00,
2013-01-23 16:43:00,12.1,6.6,30.06,NW,326,3.0,7.0,78,0.00,,,0.00,VWS V14.01,2013-01-23 21:43:00,
2013-01-23 16:48:00,11.9,6.9,30.06,NW,304,3.0,3.0,80,0.00,,,0.00,VWS V14.01,2013-01-23 21:48:00,
2013-01-23 16:53:00,11.8,7.4,30.06,NW,308,4.0,5.0,82,0.00,,,0.00,VWS V14.01,2013-01-23 21:53:00,
2013-01-23 16:58:00,11.6,7.4,30.06,NNW,329,3.0,5.0,83,0.00,,,0.00,VWS V14.01,2013-01-23 21:58:00,
2013-01-23 17:03:00,11.6,7.4,30.06,North,349,5.0,5.0,83,0.00,,,0.00,VWS V14.01,2013-01-23 22:03:00,
2013-01-23 17:08:00,11.5,7.6,30.07,NNW,334,4.0,5.0,84,0.00,,,0.00,VWS V14.01,2013-01-23 22:08:00,
2013-01-23 17:13:00,11.5,7.6,30.07,NW,322,3.0,4.0,84,0.00,,,0.00,VWS V14.01,2013-01-23 22:13:00,
2013-01-23 17:18:00,11.4,7.8,30.07,North,350,4.0,6.0,85,0.00,,,0.00,VWS V14.01,2013-01-23 22:18:00,
2013-01-23 17:23:00,11.4,8.0,30.07,WNW,286,8.0,8.0,86,0.00,,,0.00,VWS V14.01,2013-01-23 22:23:00,
2013-01-23 17:28:00,11.4,8.0,30.07,NW,325,5.0,5.0,86,0.00,,,0.00,VWS V14.01,2013-01-23 22:28:00,
2013-01-23 17:33:00,11.4,8.0,30.07,North,357,3.0,4.0,86,0.00,,,0.00,VWS V14.01,2013-01-23 22:33:00,
2013-01-23 17:38:00,11.3,7.9,30.08,North,353,4.0,5.0,86,0.00,,,0.00,VWS V14.01,2013-01-23 22:38:00,
2013-01-23 17:43:00,11.2,7.8,30.08,North,352,2.0,4.0,86,0.00,,,0.00,VWS V14.01,2013-01-23 22:43:00,
2013-01-23 17:48:00,11.1,7.7,30.08,NNW,348,1.0,3.0,86,0.00,,,0.00,VWS V14.01,2013-01-23 22:48:00,
2013-01-23 17:53:00,11.1,8.0,30.08,NNW,347,1.0,2.0,87,0.00,,,0.00,VWS V14.01,2013-01-23 22:53:00,
2013-01-23 17:58:00,11.1,8.0,30.08,WNW,297,1.0,2.0,87,0.00,,,0.00,VWS V14.01,2013-01-23 22:58:00,
2013-01-23 18:03:00,11.1,8.0,30.08,WNW,297,2.0,2.0,87,0.00,,,0.00,VWS V14.01,2013-01-23 23:03:00,
2013-01-23 18:08:00,11.2,8.1,30.08,WNW,297,2.0,2.0,87,0.00,,,0.00,VWS V14.01,2013-01-23 23:08:00,
2013-01-23 18:13:00,11.2,7.8,30.08,WNW,297,2.0,3.0,86,0.00,,,0.00,VWS V14.01,2013-01-23 23:13:00,
2013-01-23 18:18:00,11.2,7.8,30.08,NNW,339,3.0,3.0,86,0.00,,,0.00,VWS V14.01,2013-01-23 23:18:00,
2013-01-23 18:23:00,11.2,7.8,30.09,NNE,17,5.0,5.0,86,0.00,,,0.00,VWS V14.01,2013-01-23 23:23:00,
2013-01-23 18:28:00,11.2,7.8,30.09,North,357,3.0,5.0,86,0.00,,,0.00,VWS V14.01,2013-01-23 23:28:00,
2013-01-23 18:33:00,11.2,8.1,30.09,North,357,2.0,5.0,87,0.00,,,0.00,VWS V14.01,2013-01-23 23:33:00,
2013-01-23 18:38:00,11.2,7.8,30.09,North,11,2.0,3.0,86,0.00,,,0.00,VWS V14.01,2013-01-23 23:38:00,
2013-01-23 18:43:00,11.1,7.7,30.09,NNE,12,2.0,4.0,86,0.00,,,0.00,VWS V14.01,2013-01-23 23:43:00,
2013-01-23 18:48:00,11.1,7.7,30.09,North,7,3.0,3.0,86,0.00,,,0.00,VWS V14.01,2013-01-23 23:48:00,
2013-01-23 18:53:00,11.0,7.6,30.10,North,351,4.0,5.0,86,0.00,,,0.00,VWS V14.01,2013-01-23 23:53:00,
2013-01-23 18:58:00,11.0,7.6,30.10,NNE,18,3.0,3.0,86,0.00,,,0.00,VWS V14.01,2013-01-23 23:58:00,
2013-01-23 19:03:00,10.9,7.5,30.10,NNE,17,1.0,2.0,86,0.00,,,0.00,VWS V14.01,2013-01-24 00:03:00,
2013-01-23 19:08:00,10.9,7.5,30.10,North,7,1.0,2.0,86,0.00,,,0.00,VWS V14.01,2013-01-24 00:08:00,
2013-01-23 19:13:00,10.8,7.4,30.10,NNE,26,3.0,3.0,86,0.00,,,0.00,VWS V14.01,2013-01-24 00:13:00,
2013-01-23 19:18:00,10.8,7.4,30.10,NNE,13,1.0,1.0,86,0.00,,,0.00,VWS V14.01,2013-01-24 00:18:00,
2013-01-23 19:23:00,10.7,7.1,30.11,NNE,13,2.0,2.0,85,0.00,,,0.00,VWS V14.01,2013-01-24 00:23:00,
2013-01-23 19:28:00,10.7,7.3,30.11,NNE,13,1.0,2.0,86,0.00,,,0.00,VWS V14.01,2013-01-24 00:28:00,
2013-01-23 19:33:00,10.6,7.0,30.11,NNE,31,2.0,3.0,85,0.00,,,0.00,VWS V14.01,2013-01-24 00:33:00,
2013-01-23 19:39:00,10.7,6.8,30.11,NNE,19,3.0,4.0,84,0.00,,,0.00,VWS V14.01,2013-01-24 00:39:00,
2013-01-23 19:44:00,10.7,6.6,30.11,NNE,21,2.0,2.0,83,0.00,,,0.00,VWS V14.01,2013-01-24 00:44:00,
2013-01-23 19:49:00,10.6,6.5,30.12,NNE,21,0.0,1.0,83,0.00,,,0.00,VWS V14.01,2013-01-24 00:49:00,
2013-01-23 19:54:00,10.4,6.0,30.12,NNE,21,1.0,1.0,82,0.00,,,0.00,VWS V14.01,2013-01-24 00:54:00,
2013-01-23 19:59:00,10.3,6.2,30.12,NNE,21,1.0,1.0,83,0.00,,,0.00,VWS V14.01,2013-01-24 00:59:00,
2013-01-23 20:04:00,10.2,6.1,30.12,NNE,24,1.0,2.0,83,0.00,,OVC049,0.00,VWS V14.01,2013-01-24 01:04:00,
2013-01-23 20:09:00,10.0,5.9,30.13,NNE,25,1.0,2.0,83,0.00,,OVC049,0.00,VWS V14.01,2013-01-24 01:09:00,
2013-01-23 20:14:00,10.1,6.2,30.13,NNE,25,2.0,2.0,84,0.00,,OVC049,0.00,VWS V14.01,2013-01-24 01:14:00,
2013-01-23 20:19:00,9.7,5.6,30.13,NNE,25,1.0,1.0,83,0.00,,OVC049,0.00,VWS V14.01,2013-01-24 01:19:00,
2013-01-23 20:24:00,9.5,6.2,30.14,NNE,25,0.0,1.0,86,0.00,,OVC049,0.00,VWS V14.01,2013-01-24 01:24:00,
2013-01-23 20:29:00,9.5,6.2,30.14,NNE,25,2.0,2.0,86,0.00,,OVC049,0.00,VWS V14.01,2013-01-24 01:29:00,
2013-01-23 20:34:00,9.6,5.2,30.14,NNE,24,2.0,3.0,82,0.00,,OVC049,0.00,VWS V14.01,2013-01-24 01:34:00,
2013-01-23 20:39:00,10.0,4.8,30.14,NNE,25,1.0,3.0,79,0.00,,OVC049,0.00,VWS V14.01,2013-01-24 01:39:00,
2013-01-23 20:44:00,10.3,4.8,30.15,NNE,28,3.0,3.0,78,0.00,,OVC049,0.00,VWS V14.01,2013-01-24 01:44:00,
2013-01-23 20:49:00,10.6,4.5,30.15,NE,39,3.0,4.0,76,0.00,,OVC049,0.00,VWS V14.01,2013-01-24 01:49:00,
2013-01-23 20:54:00,10.8,4.7,30.15,NE,46,3.0,4.0,76,0.00,,OVC049,0.00,VWS V14.01,2013-01-24 01:54:00,
2013-01-23 20:59:00,10.7,4.6,30.15,NE,46,2.0,4.0,76,0.00,,OVC049,0.00,VWS V14.01,2013-01-24 01:59:00,
2013-01-23 21:04:00,10.7,4.3,30.16,NE,47,3.0,4.0,75,0.00,,OVC050,0.00,VWS V14.01,2013-01-24 02:04:00,
2013-01-23 21:09:00,10.7,4.1,30.16,NE,45,3.0,5.0,74,0.00,,OVC050,0.00,VWS V14.01,2013-01-24 02:09:00,
2013-01-23 21:14:00,10.6,3.7,30.16,NE,55,5.0,5.0,73,0.00,,OVC050,0.00,VWS V14.01,2013-01-24 02:14:00,
2013-01-23 21:19:00,10.5,3.3,30.17,ENE,57,4.0,5.0,72,0.00,,OVC050,0.00,VWS V14.01,2013-01-24 02:19:00,
2013-01-23 21:24:00,10.5,3.3,30.17,ENE,64,5.0,9.0,72,0.00,,OVC050,0.00,VWS V14.01,2013-01-24 02:24:00,
2013-01-23 21:29:00,10.4,3.5,30.17,ENE,69,5.0,7.0,73,0.00,,OVC050,0.00,VWS V14.01,2013-01-24 02:29:00,
2013-01-23 21:34:00,10.3,3.4,30.18,East,80,8.0,9.0,73,0.00,,OVC050,0.00,VWS V14.01,2013-01-24 02:34:00,
2013-01-23 21:39:00,10.3,4.0,30.18,East,86,6.0,10.0,75,0.00,,OVC050,0.00,VWS V14.01,2013-01-24 02:39:00,
2013-01-23 21:44:00,10.1,4.1,30.18,ENE,64,5.0,9.0,76,0.00,,OVC050,0.00,VWS V14.01,2013-01-24 02:44:00,
2013-01-23 21:49:00,9.9,4.4,30.18,ENE,67,7.0,9.0,78,0.00,,OVC050,0.00,VWS V14.01,2013-01-24 02:49:00,
2013-01-23 21:54:00,9.6,4.9,30.19,NE,55,6.0,9.0,81,0.00,,OVC050,0.00,VWS V14.01,2013-01-24 02:54:00,
2013-01-23 21:59:00,9.5,5.4,30.19,NE,48,4.0,7.0,83,0.00,,OVC050,0.00,VWS V14.01,2013-01-24 02:59:00,
2013-01-23 22:04:00,9.4,5.6,30.20,ENE,78,5.0,6.0,84,0.00,,,0.00,VWS V14.01,2013-01-24 03:04:00,
2013-01-23 22:09:00,9.3,5.7,30.20,ENE,60,4.0,5.0,85,0.00,,,0.00,VWS V14.01,2013-01-24 03:09:00,
2013-01-23 22:14:00,9.2,5.6,30.20,NE,53,6.0,8.0,85,0.00,,,0.00,VWS V14.01,2013-01-24 03:14:00,
2013-01-23 22:19:00,9.2,5.6,30.20,East,79,5.0,8.0,85,0.00,,,0.00,VWS V14.01,2013-01-24 03:19:00,
2013-01-23 22:24:00,9.2,5.9,30.21,ENE,62,8.0,8.0,86,0.00,,,0.00,VWS V14.01,2013-01-24 03:24:00,
2013-01-23 22:29:00,9.2,5.9,30.21,NE,53,8.0,9.0,86,0.00,,,0.00,VWS V14.01,2013-01-24 03:29:00,
2013-01-23 22:34:00,9.2,5.9,30.22,ENE,63,2.0,4.0,86,0.00,,,0.00,VWS V14.01,2013-01-24 03:34:00,
2013-01-23 22:39:00,9.2,5.9,30.22,East,82,5.0,8.0,86,0.00,,,0.00,VWS V14.01,2013-01-24 03:39:00,
2013-01-23 22:44:00,9.2,6.1,30.22,East,88,9.0,10.0,87,0.00,,,0.00,VWS V14.01,2013-01-24 03:44:00,
2013-01-23 22:49:00,9.1,6.0,30.23,NE,48,5.0,10.0,87,0.00,,SCT013,0.00,VWS V14.01,2013-01-24 03:49:00,
2013-01-23 22:54:00,9.1,6.0,30.23,NNE,31,7.0,8.0,87,0.00,,SCT013,0.00,VWS V14.01,2013-01-24 03:54:00,
2013-01-23 22:59:00,9.1,6.0,30.24,NE,48,5.0,8.0,87,0.00,,SCT013,0.00,VWS V14.01,2013-01-24 03:59:00,
2013-01-23 23:04:00,9.1,6.0,30.24,ENE,57,9.0,12.0,87,0.00,,BKN090,0.00,VWS V14.01,2013-01-24 04:04:00,
2013-01-23 23:09:00,9.0,5.9,30.24,ENE,69,7.0,7.0,87,0.00,,BKN090,0.00,VWS V14.01,2013-01-24 04:09:00,
2013-01-23 23:14:00,8.9,5.8,30.25,ENE,65,2.0,3.0,87,0.00,,BKN090,0.00,VWS V14.01,2013-01-24 04:14:00,
2013-01-23 23:20:00,8.7,5.4,30.25,NE,52,4.0,5.0,86,0.00,,BKN090,0.00,VWS V14.01,2013-01-24 04:20:00,
2013-01-23 23:25:00,8.5,5.2,30.25,NE,44,3.0,4.0,86,0.00,,BKN090,0.00,VWS V14.01,2013-01-24 04:25:00,
2013-01-23 23:30:00,8.4,5.1,30.26,NE,44,6.0,9.0,86,0.00,,BKN090,0.00,VWS V14.01,2013-01-24 04:30:00,
2013-01-23 23:35:00,8.2,4.9,30.26,NE,37,5.0,6.0,86,0.00,,BKN090,0.00,VWS V14.01,2013-01-24 04:35:00,
2013-01-23 23:40:00,8.0,4.9,30.26,NE,43,7.0,8.0,87,0.00,,BKN090,0.00,VWS V14.01,2013-01-24 04:40:00,
2013-01-23 23:45:00,7.9,4.8,30.27,NE,44,6.0,7.0,87,0.00,,BKN090,0.00,VWS V14.01,2013-01-24 04:45:00,
2013-01-23 23:50:00,7.7,4.4,30.27,ENE,62,5.0,6.0,86,0.00,,,0.00,VWS V14.01,2013-01-24 04:50:00,
2013-01-23 23:55:00,7.5,4.2,30.27,NE,52,3.0,10.0,86,0.00,,,0.00,VWS V14.01,2013-01-24 04:55:00,